createdAt,value
2019-05-16T00:01:48.817Z,1.13
2019-05-16T00:04:19.142Z,1.20
2019-05-16T00:06:49.907Z,1.33
2019-05-16T00:09:20.684Z,1.00
2019-05-16T00:11:51.458Z,1.30
2019-05-16T00:14:22.250Z,1.20
2019-05-16T00:16:53.010Z,1.30
2019-05-16T00:19:23.818Z,1.37
2019-05-16T00:21:54.524Z,1.27
2019-05-16T00:24:25.309Z,1.40
2019-05-16T00:26:57.933Z,1.40
2019-05-16T00:29:28.443Z,1.20
2019-05-16T00:31:59.259Z,1.00
2019-05-16T00:34:29.975Z,1.30
2019-05-16T00:37:00.750Z,1.23
2019-05-16T00:39:31.467Z,1.20
2019-05-16T00:42:02.193Z,1.30
2019-05-16T00:44:32.961Z,1.20
2019-05-16T00:47:03.748Z,1.30
2019-05-16T00:49:34.492Z,1.33
2019-05-16T00:52:07.646Z,1.60
2019-05-16T00:54:38.389Z,1.23
2019-05-16T00:57:09.662Z,1.20
2019-05-16T00:59:40.578Z,1.53
2019-05-16T01:02:11.405Z,1.27
2019-05-16T01:04:42.189Z,1.43
2019-05-16T01:07:13.288Z,1.50
2019-05-16T01:09:44.038Z,1.37
2019-05-16T01:12:14.828Z,1.20
2019-05-16T01:14:47.672Z,1.30
2019-05-16T01:17:18.323Z,1.20
2019-05-16T01:19:49.077Z,1.47
2019-05-16T01:22:19.823Z,1.60
2019-05-16T01:24:50.627Z,1.27
2019-05-16T01:27:21.406Z,1.40
2019-05-16T01:29:52.173Z,1.40
2019-05-16T01:32:23.119Z,1.40
2019-05-16T01:34:53.864Z,1.30
2019-05-16T01:37:24.677Z,1.20
2019-05-16T01:39:55.419Z,1.53
2019-05-16T01:42:27.852Z,1.63
2019-05-16T01:44:58.769Z,1.40
2019-05-16T01:47:29.615Z,1.40
2019-05-16T01:50:00.391Z,1.40
2019-05-16T01:52:31.199Z,1.47
2019-05-16T01:55:01.936Z,1.47
2019-05-16T01:57:32.690Z,1.40
2019-05-16T02:00:03.447Z,1.53
2019-05-16T02:02:34.243Z,1.60
2019-05-16T02:05:05.170Z,1.40
2019-05-16T02:07:35.936Z,1.30
2019-05-16T02:10:08.567Z,1.33
2019-05-16T02:12:39.501Z,1.37
2019-05-16T02:15:10.326Z,1.37
2019-05-16T02:17:41.141Z,1.30
2019-05-16T02:20:12.317Z,1.40
2019-05-16T02:22:43.063Z,1.50
2019-05-16T02:25:13.949Z,1.40
2019-05-16T02:27:44.730Z,1.40
2019-05-16T02:30:15.714Z,1.17
2019-05-16T02:32:46.467Z,1.40
2019-05-16T02:35:20.689Z,1.47
2019-05-16T02:37:51.674Z,1.40
2019-05-16T02:40:23.419Z,1.30
2019-05-16T02:42:56.149Z,1.30
2019-05-16T02:45:26.597Z,1.23
2019-05-16T02:47:57.367Z,1.50
2019-05-16T02:50:31.266Z,1.40
2019-05-16T02:53:01.504Z,1.50
2019-05-16T02:55:32.516Z,1.40
2019-05-16T02:58:03.291Z,1.43
2019-05-16T03:00:36.233Z,1.47
2019-05-16T03:03:07.378Z,1.53
2019-05-16T03:05:41.614Z,1.43
2019-05-16T03:08:12.222Z,1.73
2019-05-16T03:10:43.295Z,1.27
2019-05-16T03:13:15.505Z,1.60
2019-05-16T03:15:50.967Z,2.00
2019-05-16T03:18:24.175Z,1.40
2019-05-16T03:20:55.652Z,1.40
2019-05-16T03:23:26.414Z,1.80
2019-05-16T03:25:57.185Z,1.40
2019-05-16T03:28:30.621Z,1.80
2019-05-16T03:31:05.060Z,1.57
2019-05-16T03:33:41.493Z,1.63
2019-05-16T03:36:05.466Z,1.50
2019-05-16T03:38:36.457Z,1.57
2019-05-16T03:41:07.197Z,1.57
2019-05-16T03:43:41.014Z,1.80
2019-05-16T03:46:11.925Z,1.57
2019-05-16T03:48:42.973Z,1.50
2019-05-16T03:51:13.770Z,1.70
2019-05-16T03:53:44.554Z,1.20
2019-05-16T03:56:15.310Z,1.40
2019-05-16T03:58:46.046Z,1.60
2019-05-16T04:01:16.872Z,1.50
2019-05-16T04:03:50.806Z,1.77
2019-05-16T04:06:22.071Z,1.70
2019-05-16T04:08:52.456Z,1.73
2019-05-16T04:11:23.767Z,1.77
2019-05-16T04:13:54.734Z,1.90
2019-05-16T04:16:25.509Z,1.90
2019-05-16T04:18:56.253Z,1.83
2019-05-16T04:21:27.056Z,1.80
2019-05-16T04:24:00.999Z,1.90
2019-05-16T04:26:30.828Z,1.80
2019-05-16T04:29:02.622Z,1.70
2019-05-16T04:31:33.348Z,1.80
2019-05-16T04:34:04.100Z,2.00
2019-05-16T04:36:34.909Z,1.70
2019-05-16T04:39:07.565Z,1.73
2019-05-16T04:41:40.931Z,1.83
2019-05-16T04:44:11.713Z,2.10
2019-05-16T04:46:42.785Z,1.67
2019-05-16T04:49:13.552Z,1.80
2019-05-16T04:51:44.318Z,2.10
2019-05-16T04:54:15.039Z,1.83
2019-05-16T04:56:45.877Z,1.80
2019-05-16T04:59:17.094Z,2.00
2019-05-16T05:01:51.167Z,2.00
2019-05-16T05:04:21.510Z,1.87
2019-05-16T05:06:55.657Z,1.57
2019-05-16T05:09:24.893Z,1.90
2019-05-16T05:11:55.649Z,2.20
2019-05-16T05:14:26.385Z,2.00
2019-05-16T05:16:57.212Z,1.77
2019-05-16T05:19:30.495Z,2.00
2019-05-16T05:22:01.297Z,1.80
2019-05-16T05:24:32.281Z,1.80
2019-05-16T05:27:03.067Z,1.67
2019-05-16T05:29:33.813Z,1.87
2019-05-16T05:32:05.402Z,2.00
2019-05-16T05:34:36.286Z,1.77
2019-05-16T05:37:07.052Z,1.93
2019-05-16T05:39:39.592Z,1.90
2019-05-16T05:42:10.617Z,2.03
2019-05-16T05:44:41.412Z,2.00
2019-05-16T05:47:12.176Z,1.83
2019-05-16T05:49:42.962Z,1.70
2019-05-16T05:52:13.785Z,1.67
2019-05-16T05:54:44.526Z,1.63
2019-05-16T05:57:15.283Z,1.90
2019-05-16T05:59:46.028Z,2.00
2019-05-16T06:02:16.849Z,1.90
2019-05-16T06:04:47.590Z,1.77
2019-05-16T06:07:20.436Z,2.17
2019-05-16T06:09:56.293Z,1.97
2019-05-16T06:12:23.180Z,1.67
2019-05-16T06:14:53.895Z,1.70
2019-05-16T06:17:24.671Z,1.90
2019-05-16T06:19:55.457Z,1.80
2019-05-16T06:22:26.553Z,1.57
2019-05-16T06:24:57.310Z,1.90
2019-05-16T06:27:30.284Z,1.87
2019-05-16T06:30:00.772Z,1.90
2019-05-16T06:32:31.550Z,1.80
2019-05-16T06:35:02.276Z,1.53
2019-05-16T06:37:33.052Z,1.50
2019-05-16T06:40:03.827Z,1.63
2019-05-16T06:42:34.603Z,1.40
2019-05-16T06:45:05.659Z,1.63
2019-05-16T06:47:36.456Z,1.20
2019-05-16T06:50:07.404Z,1.10
2019-05-16T06:52:40.640Z,1.37
2019-05-16T06:55:10.705Z,1.17
2019-05-16T06:57:41.484Z,1.50
2019-05-16T07:00:12.458Z,1.20
2019-05-16T07:02:43.244Z,1.50
2019-05-16T07:05:14.410Z,1.43
2019-05-16T07:07:45.183Z,1.20
2019-05-16T07:10:15.972Z,1.27
2019-05-16T07:12:46.748Z,1.80
2019-05-16T07:15:17.736Z,1.20
2019-05-16T07:17:50.571Z,1.37
2019-05-16T07:20:21.263Z,1.20
2019-05-16T07:22:52.074Z,1.20
2019-05-16T07:25:22.849Z,1.30
2019-05-16T07:27:53.615Z,1.40
2019-05-16T07:30:24.774Z,1.10
2019-05-16T07:32:56.841Z,1.17
2019-05-16T07:35:27.645Z,1.60
2019-05-16T07:38:00.469Z,1.37
2019-05-16T07:40:30.914Z,1.70
2019-05-16T07:43:01.656Z,1.23
2019-05-16T07:45:32.441Z,1.33
2019-05-16T07:48:03.208Z,1.30
2019-05-16T07:50:34.023Z,1.40
2019-05-16T07:53:04.741Z,1.30
2019-05-16T07:55:35.487Z,1.37
2019-05-16T07:58:06.261Z,1.40
2019-05-16T08:00:49.633Z,1.47
2019-05-16T08:03:10.524Z,1.47
2019-05-16T08:05:41.484Z,1.10
2019-05-16T08:08:12.219Z,1.83
2019-05-16T08:10:46.590Z,1.10
2019-05-16T08:13:17.602Z,1.50
2019-05-16T08:15:50.374Z,1.97
2019-05-16T08:18:21.386Z,1.13
2019-05-16T08:20:52.897Z,1.20
2019-05-16T08:23:23.728Z,1.30
2019-05-16T08:25:54.611Z,1.40
2019-05-16T08:28:25.369Z,1.60
2019-05-16T08:30:56.169Z,1.33
2019-05-16T08:33:26.945Z,1.30
2019-05-16T08:36:01.245Z,1.30
2019-05-16T08:38:30.938Z,1.30
2019-05-16T08:43:34.251Z,1.50
2019-05-16T08:46:05.153Z,1.40
2019-05-16T08:48:35.920Z,1.57
2019-05-16T08:51:06.707Z,1.80
2019-05-16T08:53:37.453Z,1.60
2019-05-16T08:56:12.328Z,1.50
2019-05-16T08:58:41.160Z,1.47
2019-05-16T09:03:44.582Z,1.60
2019-05-16T09:06:15.355Z,1.30
2019-05-16T09:08:46.111Z,1.50
2019-05-16T09:10:11.185Z,1.50
2019-05-16T09:10:34.643Z,1.33
2019-05-16T09:13:49.635Z,1.40
2019-05-16T09:16:20.490Z,1.80
2019-05-16T09:18:38.418Z,1.63
2019-05-16T09:18:51.432Z,1.43
2019-05-16T09:21:22.283Z,1.67
2019-05-16T09:23:53.084Z,1.77
2019-05-16T09:26:23.859Z,1.50
2019-05-16T09:28:57.043Z,1.53
2019-05-16T09:31:27.635Z,1.30
2019-05-16T09:33:58.544Z,1.80
2019-05-16T09:36:29.291Z,1.73
2019-05-16T09:39:00.049Z,1.30
2019-05-16T09:41:46.094Z,1.40
2019-05-16T09:44:03.200Z,1.90
2019-05-16T09:46:33.877Z,1.43
2019-05-16T09:49:23.619Z,2.00
2019-05-16T09:51:37.739Z,1.50
2019-05-16T09:54:08.405Z,1.70
2019-05-16T09:56:39.163Z,1.80
2019-05-16T09:59:09.939Z,2.03
2019-05-16T10:01:40.707Z,2.10
2019-05-16T10:04:11.443Z,1.90
2019-05-16T10:06:42.238Z,2.00
2019-05-16T10:09:12.996Z,3.47
2019-05-16T10:11:43.840Z,1.70
2019-05-16T10:14:17.230Z,2.03
2019-05-16T10:16:47.892Z,1.93
2019-05-16T10:19:18.756Z,1.60
2019-05-16T10:21:49.596Z,1.60
2019-05-16T10:24:20.343Z,2.00
2019-05-16T10:26:53.948Z,1.80
2019-05-16T10:29:23.513Z,1.93
2019-05-16T10:31:56.688Z,1.50
2019-05-16T10:34:26.799Z,1.20
2019-05-16T10:36:59.866Z,1.33
2019-05-16T10:39:30.642Z,1.70
2019-05-16T10:42:01.418Z,1.40
2019-05-16T10:44:32.134Z,1.40
2019-05-16T10:47:02.881Z,1.63
2019-05-16T10:49:37.944Z,1.33
2019-05-16T10:52:07.229Z,1.30
2019-05-16T10:54:53.833Z,1.60
2019-05-16T10:57:10.606Z,1.60
2019-05-16T11:00:06.525Z,1.60
2019-05-16T11:02:13.791Z,1.93
2019-05-16T11:04:59.338Z,1.67
2019-05-16T11:07:16.916Z,1.50
2019-05-16T11:09:55.756Z,1.73
2019-05-16T11:12:20.655Z,1.60
2019-05-16T11:14:51.573Z,1.63
2019-05-16T11:17:22.468Z,1.90
2019-05-16T11:19:53.259Z,1.60
2019-05-16T11:22:24.040Z,2.20
2019-05-16T11:24:56.537Z,1.40
2019-05-16T11:27:27.243Z,1.27
2019-05-16T11:29:58.000Z,1.70
2019-05-16T11:32:28.756Z,1.50
2019-05-16T11:34:59.541Z,1.70
2019-05-16T11:37:30.268Z,1.70
2019-05-16T11:40:01.034Z,1.60
2019-05-16T11:42:31.771Z,1.50
2019-05-16T11:45:02.534Z,1.37
2019-05-16T11:47:33.293Z,1.33
2019-05-16T11:50:07.186Z,1.50
2019-05-16T11:52:40.435Z,1.53
2019-05-16T11:55:09.563Z,1.63
2019-05-16T11:57:40.319Z,1.63
2019-05-16T12:00:13.617Z,1.60
2019-05-16T12:02:44.362Z,1.70
2019-05-16T12:05:17.229Z,1.70
2019-05-16T12:07:48.620Z,1.67
2019-05-16T12:10:19.862Z,1.70
2019-05-16T12:12:50.693Z,1.60
2019-05-16T12:15:23.152Z,1.90
2019-05-16T12:18:01.978Z,1.83
2019-05-16T12:20:27.359Z,1.70
2019-05-16T12:22:58.265Z,1.73
2019-05-16T12:25:36.858Z,1.90
2019-05-16T12:28:08.304Z,2.17
2019-05-16T12:30:40.457Z,2.00
2019-05-16T12:33:11.403Z,1.83
2019-05-16T12:35:42.218Z,2.10
2019-05-16T12:38:12.934Z,1.87
2019-05-16T12:40:43.732Z,1.50
2019-05-16T12:43:14.438Z,1.87
2019-05-16T12:45:47.259Z,2.07
2019-05-16T12:48:20.396Z,1.70
2019-05-16T12:50:50.209Z,2.00
2019-05-16T12:53:23.576Z,2.10
2019-05-16T12:55:53.430Z,1.70
2019-05-16T12:58:26.015Z,1.60
2019-05-16T13:00:57.753Z,2.00
2019-05-16T13:03:29.028Z,2.40
2019-05-16T13:05:59.827Z,1.77
2019-05-16T13:08:30.542Z,2.30
2019-05-16T13:11:01.351Z,1.67
2019-05-16T13:13:32.116Z,1.70
2019-05-16T13:16:02.896Z,1.90
2019-05-16T13:18:33.712Z,1.50
2019-05-16T13:21:06.644Z,1.80
2019-05-16T13:23:36.830Z,2.13
2019-05-16T13:26:07.727Z,1.90
2019-05-16T13:28:38.442Z,1.53
2019-05-16T13:31:10.057Z,2.73
2019-05-16T13:33:42.476Z,2.00
2019-05-16T13:36:13.256Z,3.83
2019-05-16T13:38:43.979Z,1.90
2019-05-16T13:41:18.003Z,1.80
2019-05-16T13:43:47.202Z,1.83
2019-05-16T13:46:17.978Z,1.73
2019-05-16T13:48:48.763Z,1.70
2019-05-16T13:51:19.479Z,1.70
2019-05-16T13:53:50.117Z,1.50
2019-05-16T13:56:20.857Z,1.70
2019-05-16T13:58:52.419Z,1.57
2019-05-16T14:01:23.269Z,1.83
2019-05-16T14:03:53.982Z,1.70
2019-05-16T14:06:24.759Z,1.70
2019-05-16T14:08:56.780Z,1.80
2019-05-16T14:11:27.570Z,1.90
2019-05-16T14:13:58.260Z,1.90
2019-05-16T14:16:29.108Z,1.70
2019-05-16T14:18:59.841Z,1.80
2019-05-16T14:21:30.638Z,1.77
2019-05-16T14:24:01.391Z,1.90
2019-05-16T14:26:32.183Z,1.90
2019-05-16T14:29:03.135Z,2.03
2019-05-16T14:31:34.230Z,1.90
2019-05-16T14:34:06.281Z,2.17
2019-05-16T14:36:37.814Z,2.03
2019-05-16T14:39:08.683Z,2.00
2019-05-16T14:41:39.460Z,2.10
2019-05-16T14:44:10.252Z,2.03
2019-05-16T14:46:41.010Z,1.93
2019-05-16T14:49:11.815Z,2.00
2019-05-16T14:51:42.532Z,1.93
2019-05-16T14:54:13.517Z,2.00
2019-05-16T14:56:47.357Z,2.13
2019-05-16T14:59:16.686Z,2.17
2019-05-16T15:01:47.522Z,2.33
2019-05-16T15:04:18.383Z,1.90
2019-05-16T15:06:49.140Z,2.40
2019-05-16T15:09:19.952Z,1.70
2019-05-16T15:11:50.691Z,1.73
2019-05-16T15:14:21.488Z,1.90
2019-05-16T15:16:52.246Z,2.03
2019-05-16T15:19:23.023Z,2.20
2019-05-16T15:21:56.753Z,1.97
2019-05-16T15:24:26.817Z,2.30
2019-05-16T15:27:01.253Z,1.83
2019-05-16T15:29:30.157Z,1.83
2019-05-16T15:32:00.958Z,2.20
2019-05-16T15:34:34.566Z,2.30
2019-05-16T15:37:04.107Z,2.20
2019-05-16T15:39:37.393Z,2.40
2019-05-16T15:42:08.271Z,2.47
2019-05-16T15:44:39.224Z,2.60
2019-05-16T15:47:09.983Z,2.40
2019-05-16T15:49:40.798Z,2.57
2019-05-16T15:52:12.214Z,2.47
2019-05-16T15:54:44.895Z,2.80
2019-05-16T15:57:17.597Z,2.40
2019-05-16T15:59:48.054Z,2.43
2019-05-16T16:02:19.522Z,2.67
2019-05-16T16:04:50.276Z,2.40
2019-05-16T16:07:21.052Z,2.50
2019-05-16T16:09:51.819Z,2.60
2019-05-16T16:12:22.526Z,2.43
2019-05-16T16:14:53.332Z,2.30
2019-05-16T16:17:29.140Z,2.30
2019-05-16T16:19:58.166Z,2.27
2019-05-16T16:22:28.951Z,2.93
2019-05-16T16:24:59.778Z,2.57
2019-05-16T16:27:30.524Z,2.30
2019-05-16T16:30:01.463Z,2.37
2019-05-16T16:32:32.276Z,2.60
2019-05-16T16:35:03.034Z,2.43
2019-05-16T16:37:33.808Z,2.13
2019-05-16T16:40:10.038Z,2.20
2019-05-16T16:42:37.778Z,2.23
2019-05-16T16:45:09.023Z,2.00
2019-05-16T16:47:39.775Z,2.20
2019-05-16T16:50:11.090Z,1.80
2019-05-16T16:52:41.927Z,1.90
2019-05-16T16:55:12.794Z,2.37
2019-05-16T16:57:43.563Z,2.13
2019-05-16T17:00:17.565Z,2.00
2019-05-16T17:03:02.139Z,1.90
2019-05-16T17:05:21.100Z,1.63
2019-05-16T17:07:51.845Z,1.97
2019-05-16T17:10:22.663Z,1.90
2019-05-16T17:12:53.400Z,1.77
2019-05-16T17:15:24.393Z,1.87
2019-05-16T17:17:57.237Z,2.00
2019-05-16T17:20:27.597Z,2.07
2019-05-16T17:22:58.395Z,1.90
2019-05-16T17:25:29.141Z,2.20
2019-05-16T17:27:59.977Z,2.17
2019-05-16T17:30:30.713Z,2.33
2019-05-16T17:33:01.819Z,2.40
2019-05-16T17:35:32.554Z,2.50
2019-05-16T17:38:03.333Z,2.30
2019-05-16T17:40:34.079Z,2.50
2019-05-16T17:43:07.073Z,2.87
2019-05-16T17:45:37.770Z,2.50
2019-05-16T17:48:08.716Z,2.50
2019-05-16T17:50:39.604Z,2.20
2019-05-16T17:53:10.391Z,2.43
2019-05-16T17:56:00.240Z,2.40
2019-05-16T17:58:30.999Z,2.43
2019-05-16T18:01:01.775Z,2.27
2019-05-16T18:03:32.500Z,2.10
2019-05-16T18:06:03.256Z,2.50
2019-05-16T18:08:34.034Z,2.40
2019-05-16T18:11:06.960Z,1.90
2019-05-16T18:13:37.415Z,2.10
2019-05-16T18:16:08.322Z,1.87
2019-05-16T18:18:39.068Z,1.70
2019-05-16T18:21:09.843Z,1.60
2019-05-16T18:23:40.610Z,1.50
2019-05-16T18:26:11.365Z,1.50
2019-05-16T18:28:42.153Z,1.50
2019-05-16T18:31:12.950Z,1.70
2019-05-16T18:34:02.770Z,2.10
2019-05-16T18:36:33.526Z,1.73
2019-05-16T18:39:06.573Z,1.80
2019-05-16T18:41:37.570Z,2.03
2019-05-16T18:44:08.314Z,2.17
2019-05-16T18:46:39.092Z,1.90
2019-05-16T18:49:09.848Z,1.77
2019-05-16T18:51:40.625Z,1.80
2019-05-16T18:54:11.391Z,1.83
2019-05-16T18:56:42.520Z,1.87
2019-05-16T18:59:13.324Z,2.20
2019-05-16T19:01:46.690Z,2.03
2019-05-16T19:04:17.498Z,2.13
2019-05-16T19:06:48.583Z,2.20
2019-05-16T19:09:19.309Z,2.17
2019-05-16T19:11:50.115Z,2.30
2019-05-16T19:14:20.893Z,2.17
2019-05-16T19:16:51.678Z,2.23
2019-05-16T19:19:25.383Z,2.40
2019-05-16T19:21:56.678Z,2.67
2019-05-16T19:24:27.822Z,2.80
2019-05-16T19:26:58.754Z,2.30
2019-05-16T19:29:29.520Z,2.70
2019-05-16T19:32:00.216Z,2.47
2019-05-16T19:34:31.042Z,3.00
2019-05-16T19:37:01.771Z,3.20
2019-05-16T19:39:32.545Z,2.50
2019-05-16T19:42:03.421Z,2.90
2019-05-16T19:44:34.207Z,2.80
2019-05-16T19:47:07.084Z,2.90
2019-05-16T19:49:37.400Z,2.80
2019-05-16T19:52:08.245Z,3.30
2019-05-16T19:54:39.043Z,2.70
2019-05-16T19:57:09.789Z,3.10
2019-05-16T19:59:40.587Z,3.30
2019-05-16T20:02:11.321Z,3.03
2019-05-16T20:04:42.087Z,3.37
2019-05-16T20:07:12.733Z,3.13
2019-05-16T20:09:43.516Z,3.20
2019-05-16T20:12:14.306Z,3.20
2019-05-16T20:14:47.135Z,3.30
2019-05-16T20:17:19.197Z,3.07
2019-05-16T20:19:49.928Z,2.97
2019-05-16T20:22:20.704Z,3.10
2019-05-16T20:24:51.469Z,3.20
2019-05-16T20:27:22.224Z,3.00
2019-05-16T20:29:53.011Z,3.40
2019-05-16T20:32:23.796Z,3.63
2019-05-16T20:34:54.539Z,4.13
2019-05-16T20:37:26.534Z,4.13
2019-05-16T20:39:58.151Z,3.50
2019-05-16T20:42:28.882Z,4.83
2019-05-16T20:44:59.698Z,4.00
2019-05-16T20:47:30.455Z,5.30
2019-05-16T20:50:01.278Z,4.77
2019-05-16T20:52:32.058Z,5.43
2019-05-16T20:55:02.884Z,5.03
2019-05-16T20:57:33.639Z,5.17
2019-05-16T21:00:06.782Z,5.70
2019-05-16T21:02:38.043Z,6.10
2019-05-16T21:05:09.370Z,6.17
2019-05-16T21:07:40.086Z,5.53
2019-05-16T21:10:11.331Z,6.10
2019-05-16T21:12:42.058Z,5.87
2019-05-16T21:15:13.104Z,5.90
2019-05-16T21:17:43.821Z,6.17
2019-05-16T21:20:14.627Z,6.83
2019-05-16T21:22:47.115Z,6.27
2019-05-16T21:25:18.884Z,6.40
2019-05-16T21:27:49.726Z,6.57
2019-05-16T21:30:20.603Z,7.47
2019-05-16T21:32:51.379Z,6.53
2019-05-16T21:35:22.154Z,6.60
2019-05-16T21:37:52.900Z,6.40
2019-05-16T21:40:23.717Z,6.33
2019-05-16T21:42:58.536Z,7.03
2019-05-16T21:45:28.722Z,5.67
2019-05-16T21:47:59.237Z,5.17
2019-05-16T21:50:30.035Z,6.10
2019-05-16T21:53:00.751Z,6.10
2019-05-16T21:55:31.546Z,5.63
2019-05-16T21:58:02.287Z,5.80
2019-05-16T22:00:38.480Z,5.40
2019-05-16T22:03:09.185Z,6.23
2019-05-16T22:05:39.971Z,5.80
2019-05-16T22:08:11.872Z,6.10
2019-05-16T22:10:42.675Z,5.73
2019-05-16T22:13:13.530Z,6.43
2019-05-16T22:15:46.206Z,6.37
2019-05-16T22:18:16.820Z,6.17
2019-05-16T22:20:49.371Z,6.93
2019-05-16T22:23:19.966Z,6.03
2019-05-16T22:25:50.722Z,5.70
2019-05-16T22:28:21.478Z,5.83
2019-05-16T22:30:52.234Z,6.50
2019-05-16T22:33:23.047Z,6.07
2019-05-16T22:35:53.747Z,5.53
2019-05-16T22:38:26.274Z,5.83
2019-05-16T22:40:57.072Z,5.87
2019-05-16T22:43:27.897Z,6.30
2019-05-16T22:45:58.623Z,6.77
2019-05-16T22:48:29.413Z,7.53
2019-05-16T22:51:00.175Z,7.23
2019-05-16T22:53:31.122Z,7.07
2019-05-16T22:56:01.840Z,8.43
2019-05-16T22:58:32.633Z,8.27
2019-05-16T23:01:03.491Z,9.13
2019-05-16T23:03:34.238Z,8.67
2019-05-16T23:06:07.364Z,9.03
2019-05-16T23:08:37.410Z,10.17
2019-05-16T23:11:08.165Z,9.63
2019-05-16T23:13:38.921Z,10.73
2019-05-16T23:16:09.878Z,8.73
2019-05-16T23:18:40.625Z,9.90
2019-05-16T23:21:11.301Z,9.97
2019-05-16T23:23:42.137Z,10.27
2019-05-16T23:26:12.935Z,9.77
2019-05-16T23:28:43.670Z,8.80
2019-05-16T23:31:16.520Z,10.17
2019-05-16T23:33:47.133Z,9.87
2019-05-16T23:36:17.998Z,10.10
2019-05-16T23:38:48.722Z,10.03
2019-05-16T23:41:19.442Z,9.30
2019-05-16T23:43:50.188Z,9.40
2019-05-16T23:46:20.895Z,9.53
2019-05-16T23:48:51.591Z,8.93
2019-05-16T23:51:41.362Z,8.40
2019-05-16T23:54:12.288Z,8.37
2019-05-16T23:56:43.034Z,8.73
2019-05-16T23:59:13.700Z,9.10
